sensor_id;sensor_type;location;lat;lon;timestamp;temperature;humidity
5136;DHT22;2586;48.710;9.202;2023-05-13T00:01:41;11.20;1.00
5136;DHT22;2586;48.710;9.202;2023-05-13T00:04:07;11.20;99.90
5136;DHT22;2586;48.710;9.202;2023-05-13T00:06:33;11.20;99.90
5136;DHT22;2586;48.710;9.202;2023-05-13T00:08:59;11.20;99.90
5136;DHT22;2586;48.710;9.202;2023-05-13T00:11:26;11.20;99.90
5136;DHT22;2586;48.710;9.202;2023-05-13T00:13:52;11.20;1.00
5136;DHT22;2586;48.710;9.202;2023-05-13T00:16:18;11.30;1.00
5136;DHT22;2586;48.710;9.202;2023-05-13T00:18:43;11.30;1.00
5136;DHT22;2586;48.710;9.202;2023-05-13T00:21:09;11.20;1.00
5136;DHT22;2586;48.710;9.202;2023-05-13T00:23:34;11.20;1.00
5136;DHT22;2586;48.710;9.202;2023-05-13T00:26:00;11.20;1.00
5136;DHT22;2586;48.710;9.202;2023-05-13T00:28:26;11.20;99.90
5136;DHT22;2586;48.710;9.202;2023-05-13T00:30:51;11.20;99.90
5136;DHT22;2586;48.710;9.202;2023-05-13T00:33:17;11.20;99.90
5136;DHT22;2586;48.710;9.202;2023-05-13T00:35:43;11.10;1.00
5136;DHT22;2586;48.710;9.202;2023-05-13T00:38:08;11.10;99.90
5136;DHT22;2586;48.710;9.202;2023-05-13T00:40:37;11.10;99.90
5136;DHT22;2586;48.710;9.202;2023-05-13T00:43:07;11.10;99.90
5136;DHT22;2586;48.710;9.202;2023-05-13T00:45:35;11.10;99.90
5136;DHT22;2586;48.710;9.202;2023-05-13T00:48:01;11.10;1.00
5136;DHT22;2586;48.710;9.202;2023-05-13T00:50:27;11.10;99.90
5136;DHT22;2586;48.710;9.202;2023-05-13T00:52:52;11.10;99.90
5136;DHT22;2586;48.710;9.202;2023-05-13T00:55:18;11.10;1.00
5136;DHT22;2586;48.710;9.202;2023-05-13T00:57:44;11.10;1.00
5136;DHT22;2586;48.710;9.202;2023-05-13T01:00:10;11.10;1.00
5136;DHT22;2586;48.710;9.202;2023-05-13T01:05:35;11.00;99.90
5136;DHT22;2586;48.710;9.202;2023-05-13T01:13:22;11.10;99.90
5136;DHT22;2586;48.710;9.202;2023-05-13T01:15:59;11.00;1.00
5136;DHT22;2586;48.710;9.202;2023-05-13T01:18:32;11.00;1.00
5136;DHT22;2586;48.710;9.202;2023-05-13T01:21:00;11.00;99.90
5136;DHT22;2586;48.710;9.202;2023-05-13T01:23:27;11.00;99.90
5136;DHT22;2586;48.710;9.202;2023-05-13T01:25:53;11.00;99.90
5136;DHT22;2586;48.710;9.202;2023-05-13T01:28:19;11.00;99.90
5136;DHT22;2586;48.710;9.202;2023-05-13T01:30:45;11.00;1.00
5136;DHT22;2586;48.710;9.202;2023-05-13T01:33:12;11.00;1.00
5136;DHT22;2586;48.710;9.202;2023-05-13T01:35:38;10.90;1.00
5136;DHT22;2586;48.710;9.202;2023-05-13T01:38:04;10.90;99.90
5136;DHT22;2586;48.710;9.202;2023-05-13T01:40:30;10.90;1.00
5136;DHT22;2586;48.710;9.202;2023-05-13T01:42:56;10.80;1.00
5136;DHT22;2586;48.710;9.202;2023-05-13T01:45:22;10.70;99.90
5136;DHT22;2586;48.710;9.202;2023-05-13T01:47:47;10.70;99.90
5136;DHT22;2586;48.710;9.202;2023-05-13T01:50:13;10.60;1.00
5136;DHT22;2586;48.710;9.202;2023-05-13T01:52:39;10.60;1.00
5136;DHT22;2586;48.710;9.202;2023-05-13T01:55:05;10.50;1.00
5136;DHT22;2586;48.710;9.202;2023-05-13T01:57:30;10.50;99.90
5136;DHT22;2586;48.710;9.202;2023-05-13T01:59:56;10.50;99.90
5136;DHT22;2586;48.710;9.202;2023-05-13T02:02:21;10.40;99.90
5136;DHT22;2586;48.710;9.202;2023-05-13T02:04:47;10.40;1.00
5136;DHT22;2586;48.710;9.202;2023-05-13T02:07:12;10.50;1.00
5136;DHT22;2586;48.710;9.202;2023-05-13T02:09:38;10.50;99.90
5136;DHT22;2586;48.710;9.202;2023-05-13T02:12:04;10.50;99.90
5136;DHT22;2586;48.710;9.202;2023-05-13T02:14:29;10.50;99.90
5136;DHT22;2586;48.710;9.202;2023-05-13T02:16:55;10.40;99.90
5136;DHT22;2586;48.710;9.202;2023-05-13T02:19:20;10.40;99.90
5136;DHT22;2586;48.710;9.202;2023-05-13T02:21:46;10.40;99.90
5136;DHT22;2586;48.710;9.202;2023-05-13T02:24:12;10.40;99.90
5136;DHT22;2586;48.710;9.202;2023-05-13T02:26:38;10.40;99.90
5136;DHT22;2586;48.710;9.202;2023-05-13T02:29:06;10.40;99.90
5136;DHT22;2586;48.710;9.202;2023-05-13T02:31:31;10.30;99.90
5136;DHT22;2586;48.710;9.202;2023-05-13T02:33:57;10.30;99.90
5136;DHT22;2586;48.710;9.202;2023-05-13T02:36:22;10.20;99.90
5136;DHT22;2586;48.710;9.202;2023-05-13T02:38:48;10.20;99.90
5136;DHT22;2586;48.710;9.202;2023-05-13T02:41:13;10.20;99.90
5136;DHT22;2586;48.710;9.202;2023-05-13T02:43:39;10.30;99.90
5136;DHT22;2586;48.710;9.202;2023-05-13T02:46:05;10.30;99.90
5136;DHT22;2586;48.710;9.202;2023-05-13T02:48:31;10.30;99.90
5136;DHT22;2586;48.710;9.202;2023-05-13T02:50:56;10.30;99.90
5136;DHT22;2586;48.710;9.202;2023-05-13T02:53:22;10.30;5.50
5136;DHT22;2586;48.710;9.202;2023-05-13T02:55:48;10.30;99.90
5136;DHT22;2586;48.710;9.202;2023-05-13T02:58:14;10.30;99.90
5136;DHT22;2586;48.710;9.202;2023-05-13T03:00:39;10.30;1.00
5136;DHT22;2586;48.710;9.202;2023-05-13T03:03:05;10.30;27.50
5136;DHT22;2586;48.710;9.202;2023-05-13T03:05:30;10.30;99.90
5136;DHT22;2586;48.710;9.202;2023-05-13T03:07:56;10.40;1.00
5136;DHT22;2586;48.710;9.202;2023-05-13T03:10:22;10.40;1.00
5136;DHT22;2586;48.710;9.202;2023-05-13T03:12:48;10.40;1.00
5136;DHT22;2586;48.710;9.202;2023-05-13T03:15:14;10.30;1.00
5136;DHT22;2586;48.710;9.202;2023-05-13T03:17:40;10.30;47.50
5136;DHT22;2586;48.710;9.202;2023-05-13T03:20:06;10.30;99.90
5136;DHT22;2586;48.710;9.202;2023-05-13T03:22:32;10.30;1.00
5136;DHT22;2586;48.710;9.202;2023-05-13T03:24:58;10.20;99.90
5136;DHT22;2586;48.710;9.202;2023-05-13T03:27:23;10.20;4.60
5136;DHT22;2586;48.710;9.202;2023-05-13T03:29:49;10.20;99.90
5136;DHT22;2586;48.710;9.202;2023-05-13T03:32:15;10.20;1.00
5136;DHT22;2586;48.710;9.202;2023-05-13T03:34:40;10.20;99.90
5136;DHT22;2586;48.710;9.202;2023-05-13T03:37:06;10.20;99.90
5136;DHT22;2586;48.710;9.202;2023-05-13T03:39:32;10.10;99.90
5136;DHT22;2586;48.710;9.202;2023-05-13T03:41:57;10.20;1.00
5136;DHT22;2586;48.710;9.202;2023-05-13T03:44:23;10.20;99.90
5136;DHT22;2586;48.710;9.202;2023-05-13T03:46:48;10.20;99.90
5136;DHT22;2586;48.710;9.202;2023-05-13T03:49:14;10.20;99.90
5136;DHT22;2586;48.710;9.202;2023-05-13T03:51:40;10.20;99.90
5136;DHT22;2586;48.710;9.202;2023-05-13T03:54:05;10.20;99.90
5136;DHT22;2586;48.710;9.202;2023-05-13T03:56:31;10.20;84.10
5136;DHT22;2586;48.710;9.202;2023-05-13T03:58:56;10.20;99.90
5136;DHT22;2586;48.710;9.202;2023-05-13T04:01:22;10.20;1.00
5136;DHT22;2586;48.710;9.202;2023-05-13T04:03:47;10.20;1.00
5136;DHT22;2586;48.710;9.202;2023-05-13T04:06:14;10.20;1.00
5136;DHT22;2586;48.710;9.202;2023-05-13T04:08:40;10.20;99.90
5136;DHT22;2586;48.710;9.202;2023-05-13T04:11:06;10.10;1.00
5136;DHT22;2586;48.710;9.202;2023-05-13T04:13:33;10.10;99.90
5136;DHT22;2586;48.710;9.202;2023-05-13T04:15:59;10.10;1.00
5136;DHT22;2586;48.710;9.202;2023-05-13T04:18:25;10.10;1.00
5136;DHT22;2586;48.710;9.202;2023-05-13T04:20:50;10.10;99.90
5136;DHT22;2586;48.710;9.202;2023-05-13T04:23:16;10.10;1.00
5136;DHT22;2586;48.710;9.202;2023-05-13T04:25:41;10.10;82.60
5136;DHT22;2586;48.710;9.202;2023-05-13T04:28:07;10.10;79.00
5136;DHT22;2586;48.710;9.202;2023-05-13T04:30:34;10.10;3.80
5136;DHT22;2586;48.710;9.202;2023-05-13T04:32:59;10.10;1.00
5136;DHT22;2586;48.710;9.202;2023-05-13T04:35:25;10.10;99.90
5136;DHT22;2586;48.710;9.202;2023-05-13T04:37:50;10.10;99.90
5136;DHT22;2586;48.710;9.202;2023-05-13T04:40:16;10.00;98.40
5136;DHT22;2586;48.710;9.202;2023-05-13T04:42:42;10.00;1.00
5136;DHT22;2586;48.710;9.202;2023-05-13T04:45:08;10.00;1.00
5136;DHT22;2586;48.710;9.202;2023-05-13T04:47:33;10.00;99.90
5136;DHT22;2586;48.710;9.202;2023-05-13T04:50:00;10.00;1.00
5136;DHT22;2586;48.710;9.202;2023-05-13T04:52:26;10.00;1.00
5136;DHT22;2586;48.710;9.202;2023-05-13T04:54:51;10.00;1.00
5136;DHT22;2586;48.710;9.202;2023-05-13T04:57:17;10.00;1.00
5136;DHT22;2586;48.710;9.202;2023-05-13T04:59:43;10.00;99.90
5136;DHT22;2586;48.710;9.202;2023-05-13T05:02:08;10.00;1.00
5136;DHT22;2586;48.710;9.202;2023-05-13T05:04:34;10.00;1.00
5136;DHT22;2586;48.710;9.202;2023-05-13T05:06:59;10.00;99.90
5136;DHT22;2586;48.710;9.202;2023-05-13T05:09:25;10.00;99.90
5136;DHT22;2586;48.710;9.202;2023-05-13T05:11:50;10.00;1.00
5136;DHT22;2586;48.710;9.202;2023-05-13T05:14:16;10.00;99.90
5136;DHT22;2586;48.710;9.202;2023-05-13T05:16:42;10.10;99.90
5136;DHT22;2586;48.710;9.202;2023-05-13T05:19:07;10.20;1.00
5136;DHT22;2586;48.710;9.202;2023-05-13T05:21:33;10.20;1.00
5136;DHT22;2586;48.710;9.202;2023-05-13T05:23:58;10.10;1.00
5136;DHT22;2586;48.710;9.202;2023-05-13T05:26:26;10.10;99.90
5136;DHT22;2586;48.710;9.202;2023-05-13T05:28:51;10.10;99.90
5136;DHT22;2586;48.710;9.202;2023-05-13T05:31:17;10.10;99.90
5136;DHT22;2586;48.710;9.202;2023-05-13T05:33:43;10.10;1.00
5136;DHT22;2586;48.710;9.202;2023-05-13T05:36:08;10.10;99.90
5136;DHT22;2586;48.710;9.202;2023-05-13T05:38:34;10.10;99.90
5136;DHT22;2586;48.710;9.202;2023-05-13T05:41:00;10.10;1.00
5136;DHT22;2586;48.710;9.202;2023-05-13T05:43:25;10.20;99.90
5136;DHT22;2586;48.710;9.202;2023-05-13T05:45:51;10.20;99.90
5136;DHT22;2586;48.710;9.202;2023-05-13T05:48:19;10.10;99.90
5136;DHT22;2586;48.710;9.202;2023-05-13T05:50:45;10.10;99.90
5136;DHT22;2586;48.710;9.202;2023-05-13T05:53:11;10.20;99.90
5136;DHT22;2586;48.710;9.202;2023-05-13T05:55:36;10.20;99.90
5136;DHT22;2586;48.710;9.202;2023-05-13T05:58:02;10.30;1.00
5136;DHT22;2586;48.710;9.202;2023-05-13T06:00:30;10.20;99.90
5136;DHT22;2586;48.710;9.202;2023-05-13T06:02:55;10.30;1.00
5136;DHT22;2586;48.710;9.202;2023-05-13T06:05:22;10.30;18.30
5136;DHT22;2586;48.710;9.202;2023-05-13T06:07:47;10.40;99.90
5136;DHT22;2586;48.710;9.202;2023-05-13T06:10:13;10.30;1.00
5136;DHT22;2586;48.710;9.202;2023-05-13T06:12:38;10.40;1.00
5136;DHT22;2586;48.710;9.202;2023-05-13T06:15:07;10.40;1.00
5136;DHT22;2586;48.710;9.202;2023-05-13T06:17:35;10.50;99.90
5136;DHT22;2586;48.710;9.202;2023-05-13T06:20:01;10.50;99.90
5136;DHT22;2586;48.710;9.202;2023-05-13T06:22:26;10.50;99.90
5136;DHT22;2586;48.710;9.202;2023-05-13T06:24:52;10.50;99.90
5136;DHT22;2586;48.710;9.202;2023-05-13T06:27:17;10.50;99.90
5136;DHT22;2586;48.710;9.202;2023-05-13T06:29:43;10.60;99.90
5136;DHT22;2586;48.710;9.202;2023-05-13T06:32:08;10.60;99.90
5136;DHT22;2586;48.710;9.202;2023-05-13T06:34:34;10.60;1.00
5136;DHT22;2586;48.710;9.202;2023-05-13T06:37:00;10.70;1.00
5136;DHT22;2586;48.710;9.202;2023-05-13T06:39:25;10.70;1.00
5136;DHT22;2586;48.710;9.202;2023-05-13T06:41:51;10.80;99.90
5136;DHT22;2586;48.710;9.202;2023-05-13T06:44:16;10.90;96.20
5136;DHT22;2586;48.710;9.202;2023-05-13T06:46:42;11.00;99.90
5136;DHT22;2586;48.710;9.202;2023-05-13T06:49:08;11.20;1.00
5136;DHT22;2586;48.710;9.202;2023-05-13T06:51:33;11.30;1.00
5136;DHT22;2586;48.710;9.202;2023-05-13T06:53:59;11.30;99.90
5136;DHT22;2586;48.710;9.202;2023-05-13T06:56:25;11.50;99.90
5136;DHT22;2586;48.710;9.202;2023-05-13T06:58:51;11.60;52.50
5136;DHT22;2586;48.710;9.202;2023-05-13T07:01:17;11.70;99.90
5136;DHT22;2586;48.710;9.202;2023-05-13T07:03:43;11.80;99.90
5136;DHT22;2586;48.710;9.202;2023-05-13T07:06:09;11.80;1.00
5136;DHT22;2586;48.710;9.202;2023-05-13T07:08:35;11.90;33.80
5136;DHT22;2586;48.710;9.202;2023-05-13T07:11:00;11.90;1.00
5136;DHT22;2586;48.710;9.202;2023-05-13T07:13:26;11.80;1.00
5136;DHT22;2586;48.710;9.202;2023-05-13T07:15:52;12.00;31.40
5136;DHT22;2586;48.710;9.202;2023-05-13T07:18:17;12.10;99.90
5136;DHT22;2586;48.710;9.202;2023-05-13T07:20:43;12.40;1.00
5136;DHT22;2586;48.710;9.202;2023-05-13T07:23:08;12.50;1.00
5136;DHT22;2586;48.710;9.202;2023-05-13T07:25:34;12.50;51.50
5136;DHT22;2586;48.710;9.202;2023-05-13T07:28:00;12.60;99.90
5136;DHT22;2586;48.710;9.202;2023-05-13T07:30:26;12.80;99.90
5136;DHT22;2586;48.710;9.202;2023-05-13T07:32:52;12.80;1.00
5136;DHT22;2586;48.710;9.202;2023-05-13T07:35:17;12.70;1.00
5136;DHT22;2586;48.710;9.202;2023-05-13T07:37:43;12.70;1.00
5136;DHT22;2586;48.710;9.202;2023-05-13T07:40:09;12.80;1.00
5136;DHT22;2586;48.710;9.202;2023-05-13T07:42:35;13.00;15.50
5136;DHT22;2586;48.710;9.202;2023-05-13T07:45:01;13.20;1.00
5136;DHT22;2586;48.710;9.202;2023-05-13T07:47:27;13.20;1.00
5136;DHT22;2586;48.710;9.202;2023-05-13T07:49:54;13.30;99.90
5136;DHT22;2586;48.710;9.202;2023-05-13T07:52:19;12.90;99.90
5136;DHT22;2586;48.710;9.202;2023-05-13T07:54:45;13.20;1.00
5136;DHT22;2586;48.710;9.202;2023-05-13T07:57:11;13.30;32.50
5136;DHT22;2586;48.710;9.202;2023-05-13T07:59:36;13.30;1.00
5136;DHT22;2586;48.710;9.202;2023-05-13T08:02:02;13.20;99.90
5136;DHT22;2586;48.710;9.202;2023-05-13T08:04:27;13.00;1.00
5136;DHT22;2586;48.710;9.202;2023-05-13T08:06:53;13.00;70.20
5136;DHT22;2586;48.710;9.202;2023-05-13T08:09:18;12.70;1.00
5136;DHT22;2586;48.710;9.202;2023-05-13T08:11:44;12.60;1.00
5136;DHT22;2586;48.710;9.202;2023-05-13T08:14:10;12.40;99.90
5136;DHT22;2586;48.710;9.202;2023-05-13T08:16:35;12.40;99.90
5136;DHT22;2586;48.710;9.202;2023-05-13T08:19:01;12.50;99.90
5136;DHT22;2586;48.710;9.202;2023-05-13T08:21:27;12.50;99.90
5136;DHT22;2586;48.710;9.202;2023-05-13T08:23:53;12.70;99.90
5136;DHT22;2586;48.710;9.202;2023-05-13T08:26:18;12.70;1.00
5136;DHT22;2586;48.710;9.202;2023-05-13T08:28:44;12.70;1.00
5136;DHT22;2586;48.710;9.202;2023-05-13T08:31:11;12.60;1.00
5136;DHT22;2586;48.710;9.202;2023-05-13T08:33:37;12.60;99.90
5136;DHT22;2586;48.710;9.202;2023-05-13T08:36:03;12.50;99.90
5136;DHT22;2586;48.710;9.202;2023-05-13T08:38:29;12.40;99.90
5136;DHT22;2586;48.710;9.202;2023-05-13T08:40:54;12.40;1.00
5136;DHT22;2586;48.710;9.202;2023-05-13T08:43:23;12.20;99.90
5136;DHT22;2586;48.710;9.202;2023-05-13T08:45:50;12.10;99.90
5136;DHT22;2586;48.710;9.202;2023-05-13T08:48:17;12.00;1.00
5136;DHT22;2586;48.710;9.202;2023-05-13T08:50:44;11.90;1.00
5136;DHT22;2586;48.710;9.202;2023-05-13T08:53:11;11.90;1.00
5136;DHT22;2586;48.710;9.202;2023-05-13T08:55:38;11.90;99.90
5136;DHT22;2586;48.710;9.202;2023-05-13T08:58:05;12.00;99.90
5136;DHT22;2586;48.710;9.202;2023-05-13T09:00:32;12.10;1.00
5136;DHT22;2586;48.710;9.202;2023-05-13T09:02:58;12.30;1.00
5136;DHT22;2586;48.710;9.202;2023-05-13T09:05:24;12.40;99.90
5136;DHT22;2586;48.710;9.202;2023-05-13T09:07:50;12.40;99.90
5136;DHT22;2586;48.710;9.202;2023-05-13T09:10:16;12.50;99.90
5136;DHT22;2586;48.710;9.202;2023-05-13T09:15:19;12.50;1.00
5136;DHT22;2586;48.710;9.202;2023-05-13T09:17:54;12.50;1.00
5136;DHT22;2586;48.710;9.202;2023-05-13T09:20:20;12.50;99.90
5136;DHT22;2586;48.710;9.202;2023-05-13T09:22:52;12.40;99.90
5136;DHT22;2586;48.710;9.202;2023-05-13T09:25:20;12.40;99.90
5136;DHT22;2586;48.710;9.202;2023-05-13T09:27:51;12.40;99.90
5136;DHT22;2586;48.710;9.202;2023-05-13T09:30:19;12.40;99.90
5136;DHT22;2586;48.710;9.202;2023-05-13T09:35:30;12.40;1.00
5136;DHT22;2586;48.710;9.202;2023-05-13T09:37:56;12.50;99.90
5136;DHT22;2586;48.710;9.202;2023-05-13T09:40:21;12.60;99.90
5136;DHT22;2586;48.710;9.202;2023-05-13T09:42:47;12.70;99.90
5136;DHT22;2586;48.710;9.202;2023-05-13T09:45:15;12.60;99.90
5136;DHT22;2586;48.710;9.202;2023-05-13T09:47:41;12.70;99.90
5136;DHT22;2586;48.710;9.202;2023-05-13T09:50:08;12.80;1.00
5136;DHT22;2586;48.710;9.202;2023-05-13T09:52:35;12.90;95.40
5136;DHT22;2586;48.710;9.202;2023-05-13T09:55:01;13.00;1.00
5136;DHT22;2586;48.710;9.202;2023-05-13T09:57:31;13.10;99.90
5136;DHT22;2586;48.710;9.202;2023-05-13T10:00:02;13.40;99.90
5136;DHT22;2586;48.710;9.202;2023-05-13T10:02:30;13.50;1.00
5136;DHT22;2586;48.710;9.202;2023-05-13T10:04:56;13.50;99.90
5136;DHT22;2586;48.710;9.202;2023-05-13T10:07:23;13.20;99.90
5136;DHT22;2586;48.710;9.202;2023-05-13T10:09:57;13.10;1.00
5136;DHT22;2586;48.710;9.202;2023-05-13T10:12:25;13.00;1.00
5136;DHT22;2586;48.710;9.202;2023-05-13T10:14:51;13.00;1.00
5136;DHT22;2586;48.710;9.202;2023-05-13T10:17:22;13.10;1.00
5136;DHT22;2586;48.710;9.202;2023-05-13T10:19:50;13.40;5.50
5136;DHT22;2586;48.710;9.202;2023-05-13T10:22:30;13.60;1.00
5136;DHT22;2586;48.710;9.202;2023-05-13T10:24:57;13.90;99.90
5136;DHT22;2586;48.710;9.202;2023-05-13T10:27:26;14.10;1.00
5136;DHT22;2586;48.710;9.202;2023-05-13T10:29:54;14.20;6.00
5136;DHT22;2586;48.710;9.202;2023-05-13T10:32:23;14.20;99.90
5136;DHT22;2586;48.710;9.202;2023-05-13T10:34:50;14.20;99.90
5136;DHT22;2586;48.710;9.202;2023-05-13T10:37:35;13.90;23.80
5136;DHT22;2586;48.710;9.202;2023-05-13T10:41:00;13.80;99.90
5136;DHT22;2586;48.710;9.202;2023-05-13T10:43:22;13.70;99.90
5136;DHT22;2586;48.710;9.202;2023-05-13T10:46:01;13.50;99.90
5136;DHT22;2586;48.710;9.202;2023-05-13T10:48:41;13.30;99.90
5136;DHT22;2586;48.710;9.202;2023-05-13T10:51:08;13.30;1.00
5136;DHT22;2586;48.710;9.202;2023-05-13T10:53:47;13.30;1.00
5136;DHT22;2586;48.710;9.202;2023-05-13T10:56:14;13.20;99.90
5136;DHT22;2586;48.710;9.202;2023-05-13T10:58:39;13.30;1.00
5136;DHT22;2586;48.710;9.202;2023-05-13T11:01:35;13.30;99.90
5136;DHT22;2586;48.710;9.202;2023-05-13T11:04:04;13.20;1.00
5136;DHT22;2586;48.710;9.202;2023-05-13T11:06:35;13.30;1.00
5136;DHT22;2586;48.710;9.202;2023-05-13T11:09:04;13.40;1.00
5136;DHT22;2586;48.710;9.202;2023-05-13T11:11:32;13.40;1.00
5136;DHT22;2586;48.710;9.202;2023-05-13T11:14:08;13.30;1.00
5136;DHT22;2586;48.710;9.202;2023-05-13T11:16:38;13.30;1.00
5136;DHT22;2586;48.710;9.202;2023-05-13T11:19:19;13.30;1.00
5136;DHT22;2586;48.710;9.202;2023-05-13T11:21:50;13.20;46.70
5136;DHT22;2586;48.710;9.202;2023-05-13T11:24:18;13.20;1.00
5136;DHT22;2586;48.710;9.202;2023-05-13T11:26:52;13.20;72.40
5136;DHT22;2586;48.710;9.202;2023-05-13T11:31:54;13.20;99.90
5136;DHT22;2586;48.710;9.202;2023-05-13T11:34:22;13.30;99.90
5136;DHT22;2586;48.710;9.202;2023-05-13T11:37:10;13.50;1.00
5136;DHT22;2586;48.710;9.202;2023-05-13T11:39:37;13.60;99.90
5136;DHT22;2586;48.710;9.202;2023-05-13T11:42:06;13.60;99.90
5136;DHT22;2586;48.710;9.202;2023-05-13T11:44:33;13.60;1.00
5136;DHT22;2586;48.710;9.202;2023-05-13T11:47:00;13.60;99.90
5136;DHT22;2586;48.710;9.202;2023-05-13T11:51:55;13.80;1.00
5136;DHT22;2586;48.710;9.202;2023-05-13T11:54:22;14.10;1.00
5136;DHT22;2586;48.710;9.202;2023-05-13T11:56:48;14.40;1.00
5136;DHT22;2586;48.710;9.202;2023-05-13T11:59:13;14.60;1.00
5136;DHT22;2586;48.710;9.202;2023-05-13T12:01:39;14.80;1.00
5136;DHT22;2586;48.710;9.202;2023-05-13T12:04:05;15.00;1.00
5136;DHT22;2586;48.710;9.202;2023-05-13T12:06:31;15.20;99.90
5136;DHT22;2586;48.710;9.202;2023-05-13T12:09:04;15.20;1.00
5136;DHT22;2586;48.710;9.202;2023-05-13T12:11:30;15.10;99.90
5136;DHT22;2586;48.710;9.202;2023-05-13T12:13:56;14.80;1.00
5136;DHT22;2586;48.710;9.202;2023-05-13T12:16:22;14.80;99.90
5136;DHT22;2586;48.710;9.202;2023-05-13T12:19:14;14.50;99.90
5136;DHT22;2586;48.710;9.202;2023-05-13T12:21:40;14.60;99.90
5136;DHT22;2586;48.710;9.202;2023-05-13T12:24:26;14.60;1.00
5136;DHT22;2586;48.710;9.202;2023-05-13T12:27:03;14.50;1.00
5136;DHT22;2586;48.710;9.202;2023-05-13T12:29:39;14.40;99.90
5136;DHT22;2586;48.710;9.202;2023-05-13T12:32:05;14.30;99.90
5136;DHT22;2586;48.710;9.202;2023-05-13T12:34:32;14.20;99.90
5136;DHT22;2586;48.710;9.202;2023-05-13T12:37:12;14.10;1.00
5136;DHT22;2586;48.710;9.202;2023-05-13T12:39:38;14.10;99.90
5136;DHT22;2586;48.710;9.202;2023-05-13T12:42:04;14.10;99.90
5136;DHT22;2586;48.710;9.202;2023-05-13T12:44:30;14.20;99.90
5136;DHT22;2586;48.710;9.202;2023-05-13T12:46:56;14.10;99.90
5136;DHT22;2586;48.710;9.202;2023-05-13T12:49:22;14.10;99.90
5136;DHT22;2586;48.710;9.202;2023-05-13T12:51:48;14.00;99.90
5136;DHT22;2586;48.710;9.202;2023-05-13T12:54:16;14.00;99.90
5136;DHT22;2586;48.710;9.202;2023-05-13T12:56:41;13.90;1.00
5136;DHT22;2586;48.710;9.202;2023-05-13T12:59:07;13.80;99.90
5136;DHT22;2586;48.710;9.202;2023-05-13T13:01:33;13.70;1.00
5136;DHT22;2586;48.710;9.202;2023-05-13T13:03:59;13.70;99.90
5136;DHT22;2586;48.710;9.202;2023-05-13T13:06:25;13.80;1.00
5136;DHT22;2586;48.710;9.202;2023-05-13T13:08:50;13.80;1.00
5136;DHT22;2586;48.710;9.202;2023-05-13T13:11:16;14.00;1.00
5136;DHT22;2586;48.710;9.202;2023-05-13T13:13:47;14.20;99.90
5136;DHT22;2586;48.710;9.202;2023-05-13T13:16:13;14.50;99.90
5136;DHT22;2586;48.710;9.202;2023-05-13T13:18:39;15.00;1.00
5136;DHT22;2586;48.710;9.202;2023-05-13T13:21:05;15.30;1.00
5136;DHT22;2586;48.710;9.202;2023-05-13T13:23:35;15.70;1.00
5136;DHT22;2586;48.710;9.202;2023-05-13T13:26:01;16.00;1.00
5136;DHT22;2586;48.710;9.202;2023-05-13T13:28:27;16.10;99.90
5136;DHT22;2586;48.710;9.202;2023-05-13T13:30:53;15.90;1.00
5136;DHT22;2586;48.710;9.202;2023-05-13T13:33:19;15.60;99.90
5136;DHT22;2586;48.710;9.202;2023-05-13T13:35:45;15.20;1.00
5136;DHT22;2586;48.710;9.202;2023-05-13T13:38:12;15.10;1.00
5136;DHT22;2586;48.710;9.202;2023-05-13T13:40:38;14.80;99.90
5136;DHT22;2586;48.710;9.202;2023-05-13T13:43:07;14.60;54.30
5136;DHT22;2586;48.710;9.202;2023-05-13T13:45:33;14.40;99.90
5136;DHT22;2586;48.710;9.202;2023-05-13T13:47:58;14.30;27.10
5136;DHT22;2586;48.710;9.202;2023-05-13T13:50:24;14.10;1.00
5136;DHT22;2586;48.710;9.202;2023-05-13T13:52:50;14.00;23.30
5136;DHT22;2586;48.710;9.202;2023-05-13T13:55:19;14.00;1.00
5136;DHT22;2586;48.710;9.202;2023-05-13T13:57:45;14.00;1.00
5136;DHT22;2586;48.710;9.202;2023-05-13T14:00:11;14.00;1.00
5136;DHT22;2586;48.710;9.202;2023-05-13T14:02:38;14.00;1.00
5136;DHT22;2586;48.710;9.202;2023-05-13T14:05:05;14.00;1.00
5136;DHT22;2586;48.710;9.202;2023-05-13T14:07:31;14.00;99.90
5136;DHT22;2586;48.710;9.202;2023-05-13T14:09:56;14.00;1.00
5136;DHT22;2586;48.710;9.202;2023-05-13T14:12:22;13.90;1.00
5136;DHT22;2586;48.710;9.202;2023-05-13T14:14:47;13.90;29.30
5136;DHT22;2586;48.710;9.202;2023-05-13T14:17:13;13.80;27.30
5136;DHT22;2586;48.710;9.202;2023-05-13T14:19:38;13.80;99.90
5136;DHT22;2586;48.710;9.202;2023-05-13T14:22:04;13.90;1.00
5136;DHT22;2586;48.710;9.202;2023-05-13T14:24:30;13.90;1.00
5136;DHT22;2586;48.710;9.202;2023-05-13T14:26:57;14.00;99.90
5136;DHT22;2586;48.710;9.202;2023-05-13T14:29:24;14.00;99.90
5136;DHT22;2586;48.710;9.202;2023-05-13T14:31:51;14.10;99.90
5136;DHT22;2586;48.710;9.202;2023-05-13T14:34:17;14.10;99.90
5136;DHT22;2586;48.710;9.202;2023-05-13T14:36:42;14.10;99.90
5136;DHT22;2586;48.710;9.202;2023-05-13T14:39:08;14.10;99.90
5136;DHT22;2586;48.710;9.202;2023-05-13T14:41:35;14.10;99.90
5136;DHT22;2586;48.710;9.202;2023-05-13T14:44:01;14.00;1.00
5136;DHT22;2586;48.710;9.202;2023-05-13T14:46:26;14.00;99.90
5136;DHT22;2586;48.710;9.202;2023-05-13T14:48:52;14.00;1.00
5136;DHT22;2586;48.710;9.202;2023-05-13T14:51:18;14.00;1.00
5136;DHT22;2586;48.710;9.202;2023-05-13T14:53:43;13.90;99.90
5136;DHT22;2586;48.710;9.202;2023-05-13T14:56:09;13.90;1.00
5136;DHT22;2586;48.710;9.202;2023-05-13T14:58:34;14.00;99.90
5136;DHT22;2586;48.710;9.202;2023-05-13T15:01:00;14.10;1.00
5136;DHT22;2586;48.710;9.202;2023-05-13T15:03:26;15.70;1.00
5136;DHT22;2586;48.710;9.202;2023-05-13T15:05:51;16.50;99.90
5136;DHT22;2586;48.710;9.202;2023-05-13T15:08:18;16.30;99.90
5136;DHT22;2586;48.710;9.202;2023-05-13T15:10:44;16.00;99.90
5136;DHT22;2586;48.710;9.202;2023-05-13T15:13:10;15.70;99.90
5136;DHT22;2586;48.710;9.202;2023-05-13T15:15:36;15.60;1.00
5136;DHT22;2586;48.710;9.202;2023-05-13T15:18:01;15.60;1.00
5136;DHT22;2586;48.710;9.202;2023-05-13T15:20:27;15.50;1.00
5136;DHT22;2586;48.710;9.202;2023-05-13T15:22:53;15.50;1.00
5136;DHT22;2586;48.710;9.202;2023-05-13T15:25:19;15.70;1.00
5136;DHT22;2586;48.710;9.202;2023-05-13T15:27:45;16.10;99.90
5136;DHT22;2586;48.710;9.202;2023-05-13T15:30:11;16.40;99.90
5136;DHT22;2586;48.710;9.202;2023-05-13T15:32:36;17.60;99.90
5136;DHT22;2586;48.710;9.202;2023-05-13T15:35:02;19.10;99.90
5136;DHT22;2586;48.710;9.202;2023-05-13T15:37:27;20.50;99.90
5136;DHT22;2586;48.710;9.202;2023-05-13T15:39:53;21.60;86.70
5136;DHT22;2586;48.710;9.202;2023-05-13T15:42:19;21.50;40.60
5136;DHT22;2586;48.710;9.202;2023-05-13T15:44:44;22.30;29.50
5136;DHT22;2586;48.710;9.202;2023-05-13T15:47:10;20.80;15.10
5136;DHT22;2586;48.710;9.202;2023-05-13T15:49:35;19.40;33.50
5136;DHT22;2586;48.710;9.202;2023-05-13T15:52:01;18.40;61.20
5136;DHT22;2586;48.710;9.202;2023-05-13T15:54:28;17.50;93.00
5136;DHT22;2586;48.710;9.202;2023-05-13T15:56:53;16.80;99.90
5136;DHT22;2586;48.710;9.202;2023-05-13T15:59:21;16.40;99.90
5136;DHT22;2586;48.710;9.202;2023-05-13T16:01:53;16.10;99.90
5136;DHT22;2586;48.710;9.202;2023-05-13T16:04:19;16.00;99.90
5136;DHT22;2586;48.710;9.202;2023-05-13T16:06:44;15.80;1.00
5136;DHT22;2586;48.710;9.202;2023-05-13T16:09:10;15.80;1.00
5136;DHT22;2586;48.710;9.202;2023-05-13T16:11:36;15.60;1.00
5136;DHT22;2586;48.710;9.202;2023-05-13T16:14:01;15.60;1.00
5136;DHT22;2586;48.710;9.202;2023-05-13T16:16:27;15.60;1.00
5136;DHT22;2586;48.710;9.202;2023-05-13T16:18:52;15.50;99.90
5136;DHT22;2586;48.710;9.202;2023-05-13T16:21:18;15.30;99.90
5136;DHT22;2586;48.710;9.202;2023-05-13T16:23:44;15.20;99.90
5136;DHT22;2586;48.710;9.202;2023-05-13T16:26:09;15.30;1.00